Time;durP1;ratioP1;P1;durP2;ratioP2;P2;SDS_P1;SDS_P2;PMS_P1;PMS_P2;Temp;Humidity;BMP_temperature;BMP_pressure;BME280_temperature;BME280_humidity;BME280_pressure;Samples;Min_cycle;Max_cycle;Signal;HPM_P1;HPM_P2
2021/03/21 00:00:04;;;;;;;41.40;25.17;;;6.00;99.90;;;;;;5055502;28;20443;-83
2021/03/21 00:02:36;;;;;;;39.77;23.00;;;6.10;99.90;;;;;;5056201;28;20931;-84
2021/03/21 00:05:03;;;;;;;40.30;25.33;;;6.00;99.90;;;;;;5055130;28;20536;-83
2021/03/21 00:07:36;;;;;;;40.13;22.90;;;6.00;99.90;;;;;;5055628;28;20562;-83
2021/03/21 00:10:05;;;;;;;34.50;20.37;;;6.00;99.90;;;;;;5054691;28;20475;-83
2021/03/21 00:12:34;;;;;;;35.07;22.07;;;5.90;99.90;;;;;;5049034;28;20464;-83
2021/03/21 00:15:07;;;;;;;40.87;24.50;;;5.90;99.90;;;;;;5035767;28;20452;-83
2021/03/21 00:17:35;;;;;;;41.23;26.67;;;5.90;99.90;;;;;;5041572;28;20803;-83
2021/03/21 00:20:25;;;;;;;35.37;22.30;;;6.00;99.90;;;;;;5055873;28;20601;-83
2021/03/21 00:22:55;;;;;;;47.77;26.20;;;5.90;99.90;;;;;;5055130;28;20444;-84
2021/03/21 00:25:35;;;;;;;46.40;30.10;;;5.90;99.90;;;;;;5054049;28;20497;-83
2021/03/21 00:28:11;;;;;;;42.83;27.80;;;5.90;99.90;;;;;;5055595;28;20463;-84
2021/03/21 00:30:45;;;;;;;50.87;28.20;;;5.90;99.90;;;;;;5055443;28;20512;-83
2021/03/21 00:33:16;;;;;;;35.80;23.37;;;5.90;99.90;;;;;;5055493;28;20502;-83
2021/03/21 00:35:44;;;;;;;40.20;26.13;;;5.80;99.90;;;;;;5055102;28;20551;-83
2021/03/21 00:38:32;;;;;;;47.73;32.97;;;5.80;99.90;;;;;;5054889;28;20986;-84
2021/03/21 00:41:04;;;;;;;44.17;33.13;;;5.70;99.90;;;;;;5053789;28;20475;-83
2021/03/21 00:43:46;;;;;;;52.30;37.20;;;5.80;99.90;;;;;;5055427;28;20580;-83
2021/03/21 00:48:59;;;;;;;34.77;24.33;;;5.80;99.90;;;;;;5054161;28;20442;-83
2021/03/21 00:51:33;;;;;;;48.40;35.27;;;5.60;99.90;;;;;;5054849;28;20493;-83
2021/03/21 00:54:09;;;;;;;48.40;38.20;;;5.50;99.90;;;;;;5055266;28;20805;-83
2021/03/21 00:56:40;;;;;;;70.17;63.10;;;5.50;99.90;;;;;;5053909;28;20475;-83
2021/03/21 00:59:10;;;;;;;54.33;48.40;;;5.50;99.90;;;;;;5054636;28;20509;-83
2021/03/21 01:01:38;;;;;;;67.90;62.07;;;5.40;99.90;;;;;;5054548;28;20447;-83
2021/03/21 01:04:05;;;;;;;83.53;76.70;;;5.40;99.90;;;;;;5054851;28;20494;-82
2021/03/21 01:06:33;;;;;;;78.33;71.60;;;5.40;99.90;;;;;;5037665;28;20488;-82
2021/03/21 01:09:08;;;;;;;98.87;91.00;;;5.40;99.90;;;;;;5048605;28;20503;-82
2021/03/21 01:11:37;;;;;;;111.53;103.40;;;5.30;99.90;;;;;;5053687;28;20447;-82
2021/03/21 01:14:05;;;;;;;87.53;81.20;;;5.30;99.90;;;;;;5067911;28;20852;-82
2021/03/21 01:16:35;;;;;;;91.70;84.87;;;5.30;99.90;;;;;;5070149;28;20447;-82
2021/03/21 01:19:02;;;;;;;105.73;98.03;;;5.30;99.90;;;;;;5054581;28;20455;-82
2021/03/21 01:21:33;;;;;;;109.30;101.90;;;5.30;99.90;;;;;;5051221;28;20456;-82
2021/03/21 01:23:59;;;;;;;132.90;123.30;;;5.30;99.90;;;;;;5034574;28;20459;-83
2021/03/21 01:26:27;;;;;;;134.90;125.37;;;5.20;99.90;;;;;;5033520;28;20903;-82
2021/03/21 01:28:56;;;;;;;139.23;130.20;;;5.20;99.90;;;;;;5034471;28;20452;-82
2021/03/21 01:31:24;;;;;;;125.30;116.20;;;5.20;99.90;;;;;;5035413;28;20496;-82
2021/03/21 01:33:52;;;;;;;128.30;119.30;;;5.20;99.90;;;;;;5054278;28;20953;-82
2021/03/21 01:36:24;;;;;;;118.00;109.73;;;5.00;99.90;;;;;;5054100;28;20506;-81
2021/03/21 01:38:51;;;;;;;123.07;113.57;;;5.10;99.90;;;;;;5053670;28;20506;-82
2021/03/21 01:41:20;;;;;;;109.83;102.00;;;5.10;99.90;;;;;;5053062;28;20455;-82
2021/03/21 01:43:49;;;;;;;124.93;116.50;;;5.00;99.90;;;;;;5054118;28;20479;-82
2021/03/21 01:46:21;;;;;;;106.23;99.00;;;5.20;99.90;;;;;;5053592;28;21044;-82
2021/03/21 01:48:52;;;;;;;112.37;103.77;;;5.10;99.90;;;;;;5046461;28;20507;-82
2021/03/21 01:51:37;;;;;;;123.37;114.07;;;5.10;99.90;;;;;;5033917;28;20456;-82
2021/03/21 01:54:10;;;;;;;136.27;126.43;;;5.10;99.90;;;;;;5042209;28;20454;-82
2021/03/21 01:56:43;;;;;;;151.07;140.70;;;5.10;99.90;;;;;;5052679;28;20788;-82
2021/03/21 01:59:16;;;;;;;150.57;140.47;;;5.10;99.90;;;;;;5053508;28;20490;-83
2021/03/21 02:01:58;;;;;;;156.90;147.40;;;5.10;99.90;;;;;;5053873;28;20484;-82
2021/03/21 02:04:26;;;;;;;136.63;127.30;;;5.00;99.90;;;;;;5051713;28;20451;-82
2021/03/21 02:07:05;;;;;;;137.63;128.93;;;5.10;99.90;;;;;;5053886;28;20491;-83
2021/03/21 02:09:42;;;;;;;133.40;124.33;;;5.10;99.90;;;;;;5035939;28;20538;-83
2021/03/21 02:12:21;;;;;;;133.57;124.57;;;5.10;99.90;;;;;;5033184;28;20456;-83
2021/03/21 02:14:53;;;;;;;130.60;121.93;;;5.10;99.90;;;;;;5033864;28;20541;-82
2021/03/21 02:17:27;;;;;;;115.60;107.40;;;5.20;99.90;;;;;;5033782;28;20452;-83
2021/03/21 02:20:21;;;;;;;102.23;95.83;;;5.30;99.90;;;;;;5052936;28;20447;-82
2021/03/21 02:22:56;;;;;;;98.37;91.37;;;5.20;99.90;;;;;;5053156;28;20456;-82
2021/03/21 02:25:36;;;;;;;111.37;103.60;;;5.30;99.90;;;;;;5052122;28;20451;-83
2021/03/21 02:28:25;;;;;;;115.67;108.60;;;5.20;99.90;;;;;;5053377;28;20467;-82
2021/03/21 02:31:09;;;;;;;108.93;101.60;;;5.20;99.90;;;;;;5053454;28;20467;-83
2021/03/21 02:33:49;;;;;;;112.37;105.40;;;5.20;99.90;;;;;;5052963;28;20459;-83
2021/03/21 02:36:25;;;;;;;91.67;86.03;;;5.20;99.90;;;;;;5053203;28;20505;-83
2021/03/21 02:38:59;;;;;;;111.93;104.60;;;5.30;99.90;;;;;;5044212;28;20484;-83
2021/03/21 02:41:31;;;;;;;98.80;92.40;;;5.20;99.90;;;;;;5032060;28;20453;-82
2021/03/21 02:44:06;;;;;;;101.73;95.00;;;5.30;99.90;;;;;;5041855;28;20972;-82
2021/03/21 02:46:41;;;;;;;111.67;103.97;;;5.30;99.90;;;;;;5053695;28;20474;-83
2021/03/21 02:49:15;;;;;;;102.07;95.43;;;5.20;99.90;;;;;;5043249;28;20462;-83
2021/03/21 02:51:48;;;;;;;112.40;104.80;;;5.20;99.90;;;;;;5033314;28;20464;-82
2021/03/21 02:54:20;;;;;;;120.57;113.30;;;5.20;99.90;;;;;;5052997;28;20456;-83
2021/03/21 02:56:59;;;;;;;111.37;104.60;;;5.20;99.90;;;;;;5054652;28;20546;-83
2021/03/21 02:59:29;;;;;;;112.97;105.47;;;5.20;99.90;;;;;;5052919;28;20467;-82
2021/03/21 03:02:03;;;;;;;114.83;107.67;;;5.20;99.90;;;;;;5052505;28;20458;-83
2021/03/21 03:04:35;;;;;;;114.97;107.77;;;5.30;99.90;;;;;;5052687;28;20454;-83
2021/03/21 03:07:10;;;;;;;100.20;94.00;;;5.10;99.90;;;;;;5053197;28;20487;-83
2021/03/21 03:09:47;;;;;;;95.00;88.40;;;5.30;99.90;;;;;;5052858;28;20451;-83
2021/03/21 03:12:27;;;;;;;83.73;77.63;;;5.30;99.90;;;;;;5052271;28;20455;-83
2021/03/21 03:15:00;;;;;;;78.40;73.07;;;5.40;99.90;;;;;;5051441;28;20497;-83
2021/03/21 03:17:39;;;;;;;71.70;65.70;;;5.40;99.90;;;;;;5052369;28;20509;-83
2021/03/21 03:20:17;;;;;;;78.03;72.13;;;5.30;99.90;;;;;;5052568;28;20451;-83
2021/03/21 03:22:54;;;;;;;82.63;76.97;;;5.30;99.90;;;;;;5052430;28;20451;-83
2021/03/21 03:25:28;;;;;;;62.53;57.17;;;5.40;99.90;;;;;;5051268;28;20459;-82
2021/03/21 03:28:19;;;;;;;67.20;61.23;;;5.30;99.90;;;;;;5032489;28;20838;-83
2021/03/21 03:30:58;;;;;;;55.13;50.03;;;5.30;99.90;;;;;;5035248;28;21036;-83
2021/03/21 03:33:38;;;;;;;60.30;55.10;;;5.30;99.90;;;;;;5052477;28;20570;-83
2021/03/21 03:36:15;;;;;;;69.97;64.27;;;5.40;99.90;;;;;;5052027;28;20451;-83
2021/03/21 03:38:45;;;;;;;67.60;61.17;;;5.40;99.90;;;;;;5052529;28;20462;-84
2021/03/21 03:41:32;;;;;;;67.40;61.13;;;5.40;99.90;;;;;;5035235;28;20452;-83
2021/03/21 03:44:18;;;;;;;71.03;65.23;;;5.40;99.90;;;;;;5032385;28;20451;-83
2021/03/21 03:46:49;;;;;;;77.00;70.40;;;5.40;99.90;;;;;;5052002;28;20483;-84
2021/03/21 03:49:28;;;;;;;76.47;69.90;;;5.30;99.90;;;;;;5052567;28;20483;-83
2021/03/21 03:52:29;;;;;;;56.20;51.27;;;5.30;99.90;;;;;;5032392;28;20459;-83
2021/03/21 03:55:11;;;;;;;66.50;60.80;;;5.40;99.90;;;;;;5038665;28;20542;-83
2021/03/21 03:57:45;;;;;;;64.07;57.97;;;5.40;99.90;;;;;;5052374;28;20543;-83
2021/03/21 04:00:25;;;;;;;73.07;66.77;;;5.30;99.90;;;;;;5051664;28;20528;-83
2021/03/21 04:03:01;;;;;;;101.53;93.27;;;5.30;99.90;;;;;;5052140;28;20455;-83
2021/03/21 04:05:35;;;;;;;142.67;132.63;;;5.40;99.90;;;;;;5051966;28;20474;-82
2021/03/21 04:08:07;;;;;;;124.00;114.80;;;5.30;99.90;;;;;;5052066;28;20977;-82
2021/03/21 04:10:39;;;;;;;135.87;125.97;;;5.20;99.90;;;;;;5050696;28;20454;-82
2021/03/21 04:13:16;;;;;;;156.03;145.40;;;5.20;99.90;;;;;;5052882;28;20451;-81
2021/03/21 04:15:46;;;;;;;142.47;133.17;;;5.20;99.90;;;;;;5035785;28;20458;-81
2021/03/21 04:18:20;;;;;;;153.57;143.17;;;5.20;99.90;;;;;;5036745;28;20955;-80
2021/03/21 04:20:52;;;;;;;146.47;135.67;;;5.10;99.90;;;;;;5055632;28;21021;-81
2021/03/21 04:23:25;;;;;;;133.57;124.67;;;5.20;99.90;;;;;;5054013;28;20492;-81
2021/03/21 04:25:56;;;;;;;132.60;123.20;;;5.20;99.90;;;;;;5034483;28;20459;-80
2021/03/21 04:28:32;;;;;;;135.60;126.07;;;5.30;99.90;;;;;;5036724;28;20464;-82
2021/03/21 04:31:02;;;;;;;123.73;114.90;;;5.20;99.90;;;;;;5035709;28;20864;-81
2021/03/21 04:33:33;;;;;;;130.30;121.70;;;5.20;99.90;;;;;;5039006;28;20490;-84
2021/03/21 04:36:03;;;;;;;127.00;117.97;;;5.30;99.90;;;;;;5075547;28;20953;-81
2021/03/21 04:38:34;;;;;;;112.27;104.47;;;5.40;99.90;;;;;;5073857;28;20541;-82
2021/03/21 04:41:04;;;;;;;107.13;99.73;;;5.30;99.90;;;;;;5054205;28;20538;-82
2021/03/21 04:43:34;;;;;;;118.40;109.70;;;5.30;99.90;;;;;;5054350;28;20466;-81
2021/03/21 04:46:08;;;;;;;109.17;100.37;;;5.30;99.90;;;;;;5035256;28;20508;-82
2021/03/21 04:48:36;;;;;;;114.33;105.93;;;5.40;99.90;;;;;;5035851;28;20502;-82
2021/03/21 04:51:08;;;;;;;119.77;110.37;;;5.40;99.90;;;;;;5054872;28;20458;-81
2021/03/21 04:53:44;;;;;;;130.50;120.67;;;5.30;99.90;;;;;;5054808;28;20465;-80
2021/03/21 04:56:17;;;;;;;122.57;113.77;;;5.30;99.90;;;;;;5053765;28;20815;-80
2021/03/21 04:58:48;;;;;;;135.37;126.47;;;5.20;99.90;;;;;;5053810;28;20443;-80
2021/03/21 05:01:20;;;;;;;139.73;130.63;;;5.30;99.90;;;;;;5053938;28;20454;-80
2021/03/21 05:03:54;;;;;;;176.20;164.43;;;5.20;99.90;;;;;;5054834;28;20585;-80
2021/03/21 05:06:28;;;;;;;197.47;185.27;;;5.20;99.90;;;;;;5054491;28;20489;-80
2021/03/21 05:09:00;;;;;;;194.33;182.07;;;5.20;99.90;;;;;;5054737;28;20882;-80
2021/03/21 05:11:36;;;;;;;251.47;236.53;;;5.30;99.90;;;;;;5053561;28;20629;-80
2021/03/21 05:14:05;;;;;;;242.90;228.50;;;5.30;99.90;;;;;;5054220;28;20439;-80
2021/03/21 05:16:56;;;;;;;208.70;195.73;;;5.30;99.90;;;;;;5045441;28;21025;-81
2021/03/21 05:19:27;;;;;;;191.53;179.93;;;5.30;99.90;;;;;;5053323;28;21010;-81
2021/03/21 05:22:04;;;;;;;199.77;187.87;;;5.30;99.90;;;;;;5054076;28;20452;-82
2021/03/21 05:24:36;;;;;;;191.80;181.20;;;5.40;99.90;;;;;;5053787;28;20542;-82
2021/03/21 05:27:09;;;;;;;208.67;196.90;;;5.40;99.90;;;;;;5033401;28;20570;-86
2021/03/21 05:29:45;;;;;;;196.47;185.80;;;5.30;99.90;;;;;;5047259;28;20491;-83
2021/03/21 05:32:15;;;;;;;223.13;209.20;;;5.30;99.90;;;;;;5054075;28;20478;-84
2021/03/21 05:34:42;;;;;;;215.93;200.57;;;5.30;99.90;;;;;;5054099;28;20459;-83
2021/03/21 05:37:20;;;;;;;219.20;205.37;;;5.40;99.90;;;;;;5054156;28;20455;-84
2021/03/21 05:39:57;;;;;;;260.40;244.50;;;5.30;99.90;;;;;;5053146;28;20448;-84
2021/03/21 05:43:10;;;;;;;232.10;217.97;;;5.40;99.90;;;;;;5053640;28;20542;-84
2021/03/21 05:46:15;;;;;;;265.80;247.83;;;5.30;99.90;;;;;;5038587;28;20455;-82
2021/03/21 05:49:14;;;;;;;270.30;252.57;;;5.30;99.90;;;;;;5022673;28;20443;-83
2021/03/21 05:52:02;;;;;;;283.93;264.77;;;5.40;99.90;;;;;;5053698;28;20544;-82
2021/03/21 05:55:06;;;;;;;254.77;238.37;;;5.40;99.90;;;;;;5053795;28;20452;-84
2021/03/21 05:58:07;;;;;;;268.90;248.60;;;5.40;99.90;;;;;;5045764;28;20475;-83
2021/03/21 06:01:19;;;;;;;240.33;224.57;;;5.30;99.90;;;;;;5033939;28;20468;-83
2021/03/21 06:04:11;;;;;;;283.63;263.10;;;5.40;99.90;;;;;;5046103;28;20962;-82
2021/03/21 06:07:24;;;;;;;258.40;241.57;;;5.50;99.90;;;;;;5041556;28;20493;-82
2021/03/21 06:10:11;;;;;;;274.10;256.33;;;5.40;99.90;;;;;;5043297;28;20455;-82
2021/03/21 06:13:00;;;;;;;299.57;277.93;;;5.40;99.90;;;;;;5053177;28;20502;-82
2021/03/21 06:16:08;;;;;;;293.17;273.50;;;5.50;99.90;;;;;;5048156;28;20459;-82
2021/03/21 06:19:09;;;;;;;323.30;299.13;;;5.50;99.90;;;;;;5053322;28;20458;-82
2021/03/21 06:22:08;;;;;;;337.80;312.33;;;5.50;99.90;;;;;;5047929;28;20446;-82
2021/03/21 06:25:12;;;;;;;371.00;346.03;;;5.60;99.90;;;;;;5053386;28;20529;-82
2021/03/21 06:28:12;;;;;;;381.63;355.13;;;5.60;99.90;;;;;;4991507;28;20487;-82
2021/03/21 06:31:07;;;;;;;335.47;311.17;;;5.60;99.90;;;;;;4967664;28;20533;-83
2021/03/21 06:33:46;;;;;;;340.17;316.67;;;5.70;99.90;;;;;;5044620;28;20538;-84
2021/03/21 06:36:24;;;;;;;355.47;331.63;;;5.70;99.90;;;;;;5052563;28;20954;-83
2021/03/21 06:39:23;;;;;;;355.47;330.47;;;5.60;99.90;;;;;;5053227;28;20459;-85
2021/03/21 06:42:19;;;;;;;362.10;338.87;;;5.70;99.90;;;;;;5046391;28;20889;-81
2021/03/21 06:45:27;;;;;;;360.10;336.20;;;5.70;99.90;;;;;;5032656;28;20535;-82
2021/03/21 06:48:14;;;;;;;346.27;324.40;;;5.70;99.90;;;;;;5036061;28;20882;-82
2021/03/21 06:50:59;;;;;;;336.30;317.37;;;5.70;99.90;;;;;;5052852;28;20538;-84
2021/03/21 06:53:36;;;;;;;351.53;330.87;;;5.80;99.90;;;;;;5041274;28;20823;-83
2021/03/21 06:56:35;;;;;;;351.77;330.57;;;6.00;99.90;;;;;;5041982;28;20443;-82
2021/03/21 07:02:46;;;;;;;294.50;279.17;;;6.10;99.90;;;;;;5033872;28;20448;-83
2021/03/21 07:05:55;;;;;;;256.13;242.80;;;6.30;99.90;;;;;;5051751;28;20548;-82
2021/03/21 07:08:59;;;;;;;234.30;221.87;;;6.50;99.90;;;;;;5052816;28;20863;-81
2021/03/21 07:12:33;;;;;;;229.40;216.90;;;6.50;99.90;;;;;;5040119;28;20479;-81
2021/03/21 07:15:37;;;;;;;177.77;167.53;;;6.60;99.90;;;;;;4971873;28;20455;-81
2021/03/21 07:18:49;;;;;;;136.43;125.53;;;6.60;99.90;;;;;;5014609;28;20487;-81
2021/03/21 07:21:42;;;;;;;131.97;123.40;;;6.60;99.90;;;;;;5045498;28;20456;-83
2021/03/21 07:24:35;;;;;;;101.80;94.83;;;6.60;99.90;;;;;;5052636;28;20462;-82
2021/03/21 07:27:34;;;;;;;89.87;83.50;;;6.70;99.90;;;;;;5051046;28;20507;-83
2021/03/21 07:30:07;;;;;;;84.20;77.70;;;6.80;99.90;;;;;;5052133;28;20444;-83
2021/03/21 07:33:13;;;;;;;76.37;70.90;;;6.70;99.90;;;;;;5051993;28;20472;-82
2021/03/21 07:36:01;;;;;;;51.23;46.53;;;6.80;99.90;;;;;;5040797;28;20456;-81
2021/03/21 07:38:43;;;;;;;49.00;44.70;;;6.90;99.90;;;;;;5048676;28;20542;-81
2021/03/21 07:41:20;;;;;;;47.20;43.00;;;6.90;99.90;;;;;;5050118;28;20447;-82
2021/03/21 07:44:20;;;;;;;42.27;38.17;;;6.80;99.90;;;;;;5039240;28;20548;-81
2021/03/21 07:47:20;;;;;;;36.90;33.27;;;6.80;99.90;;;;;;5051598;28;20469;-81
2021/03/21 07:50:13;;;;;;;52.40;47.57;;;6.80;99.90;;;;;;5056258;28;20542;-81
2021/03/21 07:53:19;;;;;;;;;;;;;;;;;;;;;
2021/03/21 07:55:57;;;;;;;35.77;27.20;;;6.80;99.90;;;;;;5050599;28;20472;-82
2021/03/21 07:58:33;;;;;;;29.30;26.53;;;6.90;99.90;;;;;;5063883;28;20453;-82
2021/03/21 08:01:01;;;;;;;31.33;24.57;;;7.00;99.90;;;;;;5055425;28;20458;-82
2021/03/21 08:03:43;;;;;;;43.13;38.83;;;7.10;99.90;;;;;;5055240;28;20463;-82
2021/03/21 08:06:18;;;;;;;27.60;19.07;;;7.20;99.90;;;;;;5053396;28;20835;-81
2021/03/21 08:08:51;;;;;;;33.50;28.33;;;7.20;99.90;;;;;;5055560;28;20483;-81
2021/03/21 08:11:20;;;;;;;23.50;15.87;;;7.30;99.90;;;;;;5054390;28;20977;-81
2021/03/21 08:13:53;;;;;;;19.40;13.03;;;7.20;99.90;;;;;;5056084;28;20451;-81
2021/03/21 08:16:28;;;;;;;20.67;13.53;;;7.20;99.90;;;;;;5051943;28;20832;-81
2021/03/21 08:18:55;;;;;;;21.77;15.03;;;7.10;99.90;;;;;;5039673;28;20450;-81
2021/03/21 08:21:28;;;;;;;24.10;18.83;;;7.00;99.90;;;;;;5055800;28;20479;-82
2021/03/21 08:24:02;;;;;;;26.77;24.17;;;6.70;99.90;;;;;;5053211;28;20589;-81
2021/03/21 08:26:32;;;;;;;38.17;35.07;;;6.50;99.90;;;;;;5044506;28;20483;-83
2021/03/21 08:29:06;;;;;;;32.80;29.60;;;6.30;99.90;;;;;;5054727;28;20970;-81
2021/03/21 08:31:38;;;;;;;46.97;43.33;;;6.10;99.90;;;;;;5051134;28;20456;-81
2021/03/21 08:34:34;;;;;;;40.00;36.83;;;6.20;99.90;;;;;;5051930;28;20451;-82
2021/03/21 08:37:02;;;;;;;34.40;31.70;;;6.30;99.90;;;;;;5053331;28;20473;-82
2021/03/21 08:39:35;;;;;;;34.67;31.80;;;6.40;99.90;;;;;;5051489;28;20544;-82
2021/03/21 08:42:03;;;;;;;19.33;12.43;;;6.60;99.90;;;;;;5047016;28;20459;-82
2021/03/21 08:44:35;;;;;;;14.87;7.90;;;6.80;99.90;;;;;;5052054;28;20977;-83
2021/03/21 08:47:17;;;;;;;11.20;9.10;;;6.90;99.90;;;;;;5051789;28;20486;-82
2021/03/21 08:49:52;;;;;;;13.10;7.33;;;7.10;99.90;;;;;;5051541;28;20460;-82
2021/03/21 08:52:41;;;;;;;11.73;5.10;;;7.20;99.90;;;;;;5051524;28;20534;-82
2021/03/21 08:55:26;;;;;;;9.73;4.87;;;7.30;99.90;;;;;;5048809;28;20830;-82
2021/03/21 08:57:56;;;;;;;8.97;4.47;;;7.20;99.90;;;;;;5050372;28;20463;-82
2021/03/21 09:00:34;;;;;;;11.10;6.10;;;7.20;99.90;;;;;;5050717;28;20981;-82
2021/03/21 09:03:27;;;;;;;10.63;6.50;;;7.10;99.90;;;;;;5051605;28;20459;-82
2021/03/21 09:05:57;;;;;;;13.47;8.30;;;6.90;99.90;;;;;;5047766;28;20487;-82
2021/03/21 09:08:28;;;;;;;12.03;7.43;;;6.90;99.90;;;;;;5050659;28;20880;-82
2021/03/21 09:10:56;;;;;;;12.13;6.93;;;7.10;99.90;;;;;;5049624;28;20565;-81
2021/03/21 09:14:03;;;;;;;10.77;5.57;;;7.30;99.90;;;;;;5051923;28;20483;-81
2021/03/21 09:16:53;;;;;;;10.93;4.00;;;7.40;99.90;;;;;;5032583;28;20544;-82
2021/03/21 09:20:06;;;;;;;10.33;3.50;;;7.50;99.90;;;;;;5045403;28;20456;-81
2021/03/21 09:22:47;;;;;;;7.67;2.80;;;7.70;99.90;;;;;;5036219;28;20460;-82
2021/03/21 09:25:25;;;;;;;7.90;2.53;;;7.70;97.30;;;;;;5051146;28;20479;-83
2021/03/21 09:28:25;;;;;;;;;;;;;;;;;;;;;
2021/03/21 09:33:45;;;;;;;11.67;4.30;;;7.40;87.70;;;;;;5034009;28;20458;-82
2021/03/21 09:36:43;;;;;;;7.40;2.70;;;7.50;93.80;;;;;;5044940;28;20479;-82
2021/03/21 09:42:26;;;;;;;9.63;2.70;;;7.50;94.70;;;;;;4984074;28;20547;-82
2021/03/21 09:45:04;;;;;;;;;;;;;;;;;;;;;
2021/03/21 09:47:54;;;;;;;16.27;6.50;;;7.40;97.00;;;;;;5040251;28;20490;-82
2021/03/21 09:51:07;;;;;;;11.43;2.60;;;7.50;82.00;;;;;;5049196;28;21220;-83
2021/03/21 09:54:10;;;;;;;12.13;3.37;;;7.70;83.70;;;;;;5049899;28;20491;-84
2021/03/21 09:56:47;;;;;;;12.77;2.57;;;7.80;80.30;;;;;;5046066;28;20443;-82
2021/03/21 10:09:54;;;;;;;;;;;;;;;;;;;;;
2021/03/21 10:13:21;;;;;;;;;;;;;;;;;;;;;
2021/03/21 10:20:11;;;;;;;;;;;;;;;;;;;;;
2021/03/21 10:24:02;;;;;;;;;;;;;;;;;;;;;
2021/03/21 10:34:36;;;;;;;17.10;3.27;;;7.80;56.60;;;;;;4999054;28;20844;-82
2021/03/21 10:40:49;;;;;;;18.50;4.30;;;7.60;50.00;;;;;;5013952;28;20498;-83
2021/03/21 10:44:18;;;;;;;19.60;4.10;;;7.70;48.70;;;;;;5048727;28;20493;-83
2021/03/21 10:49:57;;;;;;;20.33;3.53;;;7.60;44.00;;;;;;4986745;28;20451;-83
2021/03/21 10:52:35;;;;;;;18.13;4.00;;;7.70;46.50;;;;;;4985233;28;20842;-82
2021/03/21 10:55:49;;;;;;;19.57;6.30;;;7.80;47.90;;;;;;5032622;28;20440;-82
2021/03/21 10:58:32;;;;;;;18.03;5.03;;;7.60;44.10;;;;;;5016779;28;20486;-84
2021/03/21 11:01:36;;;;;;;17.27;5.80;;;7.80;43.00;;;;;;5043250;28;20453;-83
2021/03/21 11:08:04;;;;;;;18.60;4.63;;;7.90;39.40;;;;;;5013167;28;20483;-83
2021/03/21 11:10:39;;;;;;;20.93;4.30;;;7.90;36.70;;;;;;5039242;28;20874;-83
2021/03/21 11:13:13;;;;;;;22.67;5.07;;;7.90;34.20;;;;;;5054597;28;20457;-84
2021/03/21 11:15:44;;;;;;;16.00;2.93;;;8.10;34.10;;;;;;5050808;28;20460;-84
2021/03/21 11:18:24;;;;;;;28.30;12.57;;;8.10;32.40;;;;;;5042377;28;20502;-84
2021/03/21 11:21:33;;;;;;;;;;;;;;;;;;;;;
2021/03/21 11:24:23;;;;;;;14.67;3.73;;;8.20;26.60;;;;;;5054080;28;20462;-84
2021/03/21 11:27:27;;;;;;;24.47;7.27;;;8.30;27.40;;;;;;5053626;28;20563;-83
2021/03/21 11:30:02;;;;;;;23.30;6.27;;;8.20;25.40;;;;;;5052278;28;20958;-82
2021/03/21 11:32:33;;;;;;;19.93;3.20;;;8.30;23.50;;;;;;5053721;28;20534;-83
2021/03/21 11:35:04;;;;;;;18.70;4.70;;;8.30;26.30;;;;;;5053531;28;20534;-83
2021/03/21 11:37:38;;;;;;;23.80;7.50;;;8.20;26.50;;;;;;5053903;28;20456;-83
2021/03/21 11:40:25;;;;;;;17.33;3.57;;;8.10;23.70;;;;;;5053085;28;20843;-83
2021/03/21 11:43:20;;;;;;;17.97;5.23;;;8.10;22.20;;;;;;5054108;28;20455;-83
2021/03/21 11:46:09;;;;;;;16.37;3.33;;;8.10;23.10;;;;;;5052653;28;20460;-82
2021/03/21 11:48:39;;;;;;;23.10;5.83;;;8.30;26.20;;;;;;5052895;28;20508;-81
2021/03/21 11:51:09;;;;;;;21.63;6.27;;;8.20;22.80;;;;;;5054207;28;20831;-83
2021/03/21 11:53:40;;;;;;;18.03;4.10;;;8.10;23.70;;;;;;5054675;28;20451;-83
2021/03/21 11:56:17;;;;;;;23.07;10.40;;;8.20;23.00;;;;;;5049298;28;20495;-82
2021/03/21 11:58:50;;;;;;;20.03;5.23;;;8.20;20.60;;;;;;5054836;28;20448;-82
2021/03/21 12:01:28;;;;;;;26.93;9.17;;;8.20;22.80;;;;;;5035480;28;20465;-82
2021/03/21 12:03:59;;;;;;;25.40;4.70;;;8.00;19.90;;;;;;5035477;28;20511;-82
2021/03/21 12:06:32;;;;;;;26.43;4.80;;;8.10;22.30;;;;;;5041641;28;20484;-82
2021/03/21 12:09:09;;;;;;;20.03;6.33;;;8.20;20.60;;;;;;5055816;28;20608;-82
2021/03/21 12:11:47;;;;;;;19.40;5.70;;;8.20;23.30;;;;;;5054603;28;20500;-82
2021/03/21 12:14:43;;;;;;;33.60;4.40;;;8.00;21.90;;;;;;5055788;28;20443;-83
2021/03/21 12:17:41;;;;;;;32.53;7.27;;;8.20;21.40;;;;;;5055567;28;20461;-82
2021/03/21 12:20:38;;;;;;;24.70;5.40;;;8.40;23.20;;;;;;5043482;28;20818;-82
2021/03/21 12:23:38;;;;;;;15.53;4.43;;;8.40;20.70;;;;;;5055712;28;20462;-82
2021/03/21 12:26:42;;;;;;;30.10;7.90;;;8.40;20.80;;;;;;5046336;28;20456;-82
2021/03/21 12:29:39;;;;;;;30.17;5.60;;;8.30;22.10;;;;;;5035675;28;20532;-83
2021/03/21 12:32:30;;;;;;;27.70;5.40;;;8.30;21.00;;;;;;5050885;28;21032;-82
2021/03/21 12:38:20;;;;;;;;;;;;;;;;;;;;;
2021/03/21 12:41:18;;;;;;;30.43;6.00;;;8.30;20.10;;;;;;5054100;28;20466;-82
2021/03/21 12:44:17;;;;;;;;;;;;;;;;;;;;;
2021/03/21 12:46:52;;;;;;;20.60;6.60;;;8.40;23.00;;;;;;5055085;28;20798;-83
2021/03/21 12:49:43;;;;;;;16.67;4.07;;;8.30;22.40;;;;;;5054880;28;20864;-83
2021/03/21 12:52:16;;;;;;;34.43;6.27;;;8.30;19.50;;;;;;5049380;28;20539;-83
2021/03/21 12:54:46;;;;;;;21.40;6.10;;;8.30;18.20;;;;;;5054340;28;20479;-82
2021/03/21 12:57:19;;;;;;;21.23;4.70;;;8.20;19.00;;;;;;5053850;28;20509;-83
2021/03/21 13:00:44;;;;;;;;;;;;;;;;;;;;;
2021/03/21 13:03:28;;;;;;;17.73;3.93;;;8.10;21.20;;;;;;4963752;28;21029;-84
2021/03/21 13:05:56;;;;;;;20.90;4.37;;;8.20;19.40;;;;;;4995469;28;20478;-83
2021/03/21 13:08:28;;;;;;;25.13;7.47;;;8.30;20.00;;;;;;4993487;28;20984;-83
2021/03/21 13:10:56;;;;;;;32.43;6.87;;;8.20;19.40;;;;;;5034832;28;20539;-83
2021/03/21 13:13:26;;;;;;;26.57;6.00;;;8.40;21.30;;;;;;5054757;28;20469;-83
2021/03/21 13:15:58;;;;;;;36.03;18.13;;;8.30;22.00;;;;;;5038810;28;20466;-83
2021/03/21 13:18:30;;;;;;;31.33;6.87;;;8.30;17.80;;;;;;5034744;28;20517;-83
2021/03/21 13:20:59;;;;;;;26.20;5.07;;;8.30;18.90;;;;;;5049844;28;20944;-84
2021/03/21 13:23:27;;;;;;;24.47;6.23;;;8.50;19.60;;;;;;5051890;28;20880;-83
2021/03/21 13:25:54;;;;;;;24.97;5.87;;;8.50;16.80;;;;;;5033980;28;20458;-82
2021/03/21 13:28:20;;;;;;;16.23;4.20;;;8.40;17.80;;;;;;5053956;28;20509;-82
2021/03/21 13:30:52;;;;;;;58.47;9.03;;;8.50;18.40;;;;;;5052540;28;20549;-82
2021/03/21 13:33:25;;;;;;;21.97;5.50;;;8.60;16.70;;;;;;5052591;28;20455;-82
2021/03/21 13:35:55;;;;;;;49.23;6.47;;;8.70;20.10;;;;;;5053201;28;20500;-83
2021/03/21 13:38:22;;;;;;;30.47;5.50;;;8.70;18.00;;;;;;5053333;28;20461;-83
2021/03/21 13:40:51;;;;;;;37.30;21.10;;;8.70;18.00;;;;;;5051807;28;20490;-82
2021/03/21 13:43:22;;;;;;;26.73;6.37;;;8.40;15.40;;;;;;5053186;28;20480;-83
2021/03/21 13:45:57;;;;;;;27.70;6.40;;;8.50;15.80;;;;;;5038367;28;20484;-82
2021/03/21 13:48:27;;;;;;;30.53;6.00;;;8.60;17.50;;;;;;5052753;28;20489;-83
2021/03/21 13:51:00;;;;;;;31.77;5.33;;;8.70;16.20;;;;;;5053251;28;20460;-83
2021/03/21 13:53:31;;;;;;;25.90;5.97;;;8.70;17.20;;;;;;5052419;28;20954;-82
2021/03/21 13:56:02;;;;;;;26.83;7.33;;;8.60;16.40;;;;;;5035174;28;20955;-83
2021/03/21 13:58:28;;;;;;;18.60;4.73;;;8.60;16.40;;;;;;5034341;28;20516;-83
2021/03/21 14:00:55;;;;;;;33.30;4.53;;;8.70;19.30;;;;;;5053025;28;20481;-83
2021/03/21 14:03:21;;;;;;;33.23;6.70;;;8.80;16.60;;;;;;5052301;28;20454;-83
2021/03/21 14:05:49;;;;;;;24.97;9.77;;;8.80;15.60;;;;;;5052668;28;20485;-82
2021/03/21 14:08:19;;;;;;;24.40;5.53;;;8.80;16.40;;;;;;5048800;28;20482;-81
2021/03/21 14:10:48;;;;;;;34.57;5.53;;;8.80;19.80;;;;;;5049585;28;20459;-83
2021/03/21 14:13:16;;;;;;;19.47;5.47;;;8.90;17.10;;;;;;5050296;28;20816;-83
2021/03/21 14:15:43;;;;;;;25.80;9.50;;;8.90;15.40;;;;;;5031241;28;20490;-83
2021/03/21 14:18:20;;;;;;;28.20;9.57;;;8.80;16.40;;;;;;5031534;28;20463;-81
2021/03/21 14:21:11;;;;;;;25.17;6.80;;;8.80;14.10;;;;;;5034540;28;20459;-83
2021/03/21 14:27:19;;;;;;;34.07;6.57;;;8.90;15.80;;;;;;5049692;28;20451;-82
2021/03/21 14:32:58;;;;;;;24.63;6.50;;;8.70;16.10;;;;;;5051315;28;20455;-83
2021/03/21 14:35:47;;;;;;;;;;;;;;;;;;;;;
2021/03/21 14:41:28;;;;;;;29.60;7.00;;;8.40;15.60;;;;;;5019551;28;20459;-83
2021/03/21 14:43:56;;;;;;;23.90;5.20;;;8.50;19.70;;;;;;5033281;28;20463;-83
2021/03/21 14:46:23;;;;;;;31.83;4.10;;;8.60;14.40;;;;;;5052408;28;20506;-82
2021/03/21 14:48:49;;;;;;;23.43;4.70;;;8.70;14.90;;;;;;5052708;28;21018;-83
2021/03/21 14:51:15;;;;;;;34.57;5.00;;;8.80;16.30;;;;;;5052245;28;20537;-83